Time;durP1;ratioP1;P1;durP2;ratioP2;P2;SDS_P1;SDS_P2;PMS_P1;PMS_P2;Temp;Humidity;BMP_temperature;BMP_pressure;BME280_temperature;BME280_humidity;BME280_pressure;Samples;Min_cycle;Max_cycle;Signal;HPM_P1;HPM_P2
2020/12/15 00:01:45;;;;;;;6.03;4.20;;;7.50;99.90;;;;;;5113230;28;20227;-60
2020/12/15 00:04:13;;;;;;;5.47;4.17;;;7.50;99.90;;;;;;5113219;28;20218;-61
2020/12/15 00:06:39;;;;;;;5.37;4.00;;;7.60;99.90;;;;;;5113306;28;20430;-61
2020/12/15 00:09:05;;;;;;;4.70;3.67;;;7.70;99.90;;;;;;5113021;28;20610;-61
2020/12/15 00:11:31;;;;;;;4.90;3.77;;;7.80;99.90;;;;;;5113221;28;20232;-60
2020/12/15 00:13:57;;;;;;;8.90;4.00;;;7.80;99.90;;;;;;5112888;28;20208;-61
2020/12/15 00:16:23;;;;;;;5.87;4.07;;;8.00;99.90;;;;;;5113371;28;20227;-62
2020/12/15 00:18:50;;;;;;;6.97;3.57;;;8.00;99.90;;;;;;5113186;28;20227;-62
2020/12/15 00:21:21;;;;;;;5.70;4.23;;;8.10;99.90;;;;;;5113063;28;20367;-62
2020/12/15 00:23:49;;;;;;;6.13;4.07;;;8.10;99.90;;;;;;5112776;28;20215;-62
2020/12/15 00:26:16;;;;;;;5.30;4.00;;;8.10;99.90;;;;;;5112931;28;20595;-62
2020/12/15 00:28:42;;;;;;;5.60;4.07;;;8.00;99.90;;;;;;5112912;28;20207;-61
2020/12/15 00:31:08;;;;;;;7.30;4.87;;;8.00;99.90;;;;;;5113057;28;20230;-62
2020/12/15 00:33:35;;;;;;;5.73;4.50;;;8.00;99.90;;;;;;5113179;28;20199;-61
2020/12/15 00:36:01;;;;;;;8.10;4.90;;;8.00;99.90;;;;;;5113488;28;20591;-61
2020/12/15 00:38:28;;;;;;;6.17;4.40;;;7.90;99.90;;;;;;5112881;28;20204;-62
2020/12/15 00:40:54;;;;;;;5.23;4.27;;;7.90;99.90;;;;;;5112957;28;20253;-62
2020/12/15 00:43:20;;;;;;;7.00;4.20;;;7.90;99.90;;;;;;5113043;28;20207;-61
2020/12/15 00:45:47;;;;;;;7.83;4.87;;;7.90;99.90;;;;;;5112948;28;20211;-62
2020/12/15 00:48:13;;;;;;;6.33;4.67;;;7.90;99.90;;;;;;5112552;28;20210;-61
2020/12/15 00:50:40;;;;;;;6.57;4.70;;;7.90;99.90;;;;;;5112681;28;20226;-61
2020/12/15 00:53:06;;;;;;;6.53;4.77;;;7.90;99.90;;;;;;5112788;28;20208;-61
2020/12/15 00:55:33;;;;;;;9.00;6.20;;;7.80;99.90;;;;;;5112433;28;20214;-61
2020/12/15 00:57:59;;;;;;;9.43;5.43;;;7.80;99.90;;;;;;5112481;28;20199;-61
2020/12/15 01:00:26;;;;;;;6.60;5.17;;;7.80;99.90;;;;;;5111703;28;20204;-61
2020/12/15 01:02:52;;;;;;;8.73;5.50;;;7.70;99.90;;;;;;5112638;28;20208;-61
2020/12/15 01:05:18;;;;;;;6.97;4.47;;;7.80;99.90;;;;;;5112233;28;20211;-61
2020/12/15 01:07:46;;;;;;;5.43;3.87;;;7.70;99.90;;;;;;5111943;28;20206;-61
2020/12/15 01:10:12;;;;;;;4.27;3.50;;;7.70;99.90;;;;;;5112711;28;20230;-61
2020/12/15 01:12:39;;;;;;;4.20;3.40;;;7.70;99.90;;;;;;5112719;28;20207;-61
2020/12/15 01:15:05;;;;;;;4.20;3.37;;;7.70;99.90;;;;;;5111928;28;20199;-61
2020/12/15 01:17:32;;;;;;;4.13;3.03;;;7.60;99.90;;;;;;5112045;28;20433;-61
2020/12/15 01:19:58;;;;;;;5.17;3.33;;;7.60;99.90;;;;;;5111565;28;20728;-61
2020/12/15 01:22:24;;;;;;;5.90;3.67;;;7.70;99.90;;;;;;5112320;28;20223;-61
2020/12/15 01:24:50;;;;;;;4.67;3.07;;;7.70;99.90;;;;;;5111980;28;20204;-61
2020/12/15 01:27:16;;;;;;;4.60;3.37;;;7.70;99.90;;;;;;5112102;28;20204;-61
2020/12/15 01:29:43;;;;;;;4.00;3.37;;;7.80;99.90;;;;;;5111705;28;20563;-61
2020/12/15 01:32:10;;;;;;;5.17;3.70;;;7.90;99.90;;;;;;5111793;28;20224;-61
2020/12/15 01:34:36;;;;;;;4.57;2.93;;;7.90;99.90;;;;;;5111651;28;20234;-61
2020/12/15 01:37:03;;;;;;;4.97;3.57;;;7.90;99.90;;;;;;5111544;28;20247;-61
2020/12/15 01:39:29;;;;;;;21.97;13.60;;;7.80;99.90;;;;;;5111848;28;20203;-61
2020/12/15 01:41:56;;;;;;;54.73;27.20;;;7.80;99.90;;;;;;5111871;28;20223;-61
2020/12/15 01:44:22;;;;;;;10.10;6.87;;;7.90;99.90;;;;;;5111428;28;20211;-61
2020/12/15 01:46:50;;;;;;;4.43;3.70;;;7.90;99.90;;;;;;5112021;28;20207;-61
2020/12/15 01:49:18;;;;;;;6.83;4.90;;;7.90;99.90;;;;;;5111521;28;20207;-61
2020/12/15 01:51:46;;;;;;;4.77;3.50;;;7.90;99.90;;;;;;5111283;28;20220;-61
2020/12/15 01:54:12;;;;;;;6.63;4.20;;;7.90;99.90;;;;;;5111469;28;20207;-61
2020/12/15 01:56:39;;;;;;;5.47;4.27;;;7.90;99.90;;;;;;5111589;28;20255;-61
2020/12/15 01:59:05;;;;;;;5.03;3.87;;;7.90;99.90;;;;;;5111417;28;20214;-61
2020/12/15 02:01:42;;;;;;;5.80;3.77;;;8.10;99.90;;;;;;5111242;28;20235;-61
2020/12/15 02:04:09;;;;;;;5.63;3.93;;;8.20;99.90;;;;;;5111141;28;20222;-61
2020/12/15 02:06:35;;;;;;;7.73;5.73;;;8.30;99.90;;;;;;5111891;28;20579;-61
2020/12/15 02:09:04;;;;;;;4.77;3.57;;;8.30;99.90;;;;;;5112099;28;20218;-61
2020/12/15 02:11:30;;;;;;;4.33;3.43;;;8.30;99.90;;;;;;5113855;28;20227;-61
2020/12/15 02:13:57;;;;;;;4.67;3.83;;;8.30;99.90;;;;;;5116194;28;20203;-61
2020/12/15 02:16:23;;;;;;;4.67;3.67;;;8.30;99.90;;;;;;5116071;28;20269;-61
2020/12/15 02:18:50;;;;;;;6.37;4.90;;;8.30;99.90;;;;;;5115911;28;20256;-61
2020/12/15 02:21:17;;;;;;;7.87;5.77;;;8.20;99.90;;;;;;5115629;28;20219;-61
2020/12/15 02:23:44;;;;;;;4.67;3.67;;;8.10;99.90;;;;;;5115667;28;20203;-61
2020/12/15 02:26:10;;;;;;;4.53;4.00;;;8.10;99.90;;;;;;5115203;28;20208;-62
2020/12/15 02:28:37;;;;;;;4.20;3.30;;;8.10;99.90;;;;;;5115040;28;20215;-61
2020/12/15 02:31:03;;;;;;;6.17;3.67;;;8.10;99.90;;;;;;5115172;28;20223;-61
2020/12/15 02:33:30;;;;;;;4.80;3.50;;;8.10;99.90;;;;;;5114950;28;20211;-61
2020/12/15 02:35:58;;;;;;;4.73;3.70;;;8.10;99.90;;;;;;5115143;28;20238;-61
2020/12/15 02:38:24;;;;;;;5.57;3.83;;;8.10;99.90;;;;;;5115085;28;20212;-61
2020/12/15 02:40:51;;;;;;;5.83;3.63;;;8.10;99.90;;;;;;5115022;28;20228;-61
2020/12/15 02:43:17;;;;;;;7.30;4.57;;;8.00;99.90;;;;;;5115084;28;20210;-61
2020/12/15 02:45:43;;;;;;;4.57;3.63;;;7.90;99.90;;;;;;5114737;28;20212;-61
2020/12/15 02:48:09;;;;;;;4.90;3.23;;;7.90;99.90;;;;;;5114608;28;20210;-61
2020/12/15 02:50:36;;;;;;;4.50;3.53;;;7.90;99.90;;;;;;5114734;28;20219;-61
2020/12/15 02:53:02;;;;;;;5.30;3.77;;;7.80;99.90;;;;;;5114873;28;20204;-61
2020/12/15 02:55:29;;;;;;;5.67;3.87;;;7.70;99.90;;;;;;5114927;28;20199;-61
2020/12/15 02:57:56;;;;;;;4.13;3.47;;;7.60;99.90;;;;;;5114296;28;20231;-61
2020/12/15 03:00:22;;;;;;;4.23;3.33;;;7.50;99.90;;;;;;5114247;28;20204;-61
2020/12/15 03:02:48;;;;;;;5.20;3.70;;;7.50;99.90;;;;;;5126999;22;20749;-61
2020/12/15 03:05:15;;;;;;;4.50;3.37;;;7.50;99.90;;;;;;5115148;28;20207;-60
2020/12/15 03:07:41;;;;;;;5.13;3.63;;;7.50;99.90;;;;;;5115324;28;20678;-61
2020/12/15 03:10:10;;;;;;;5.23;3.90;;;7.50;99.90;;;;;;5116355;28;20200;-60
2020/12/15 03:12:37;;;;;;;6.33;4.10;;;7.60;99.90;;;;;;5115811;28;20227;-60
2020/12/15 03:15:04;;;;;;;4.20;3.40;;;7.60;99.90;;;;;;5114769;28;20211;-60
2020/12/15 03:17:30;;;;;;;4.27;3.37;;;7.70;99.90;;;;;;5114469;28;20223;-60
2020/12/15 03:19:56;;;;;;;5.30;3.77;;;7.70;99.90;;;;;;5114218;28;20229;-60
2020/12/15 03:22:22;;;;;;;4.70;3.70;;;7.70;99.90;;;;;;5113925;28;20714;-60
2020/12/15 03:24:48;;;;;;;5.13;3.50;;;7.80;99.90;;;;;;5113999;28;20261;-60
2020/12/15 03:27:15;;;;;;;4.90;3.70;;;7.80;99.90;;;;;;5114198;28;20667;-61
2020/12/15 03:29:41;;;;;;;6.17;3.53;;;7.80;99.90;;;;;;5113798;28;20208;-60
2020/12/15 03:32:08;;;;;;;6.07;4.43;;;7.80;99.90;;;;;;5113976;28;20281;-60
2020/12/15 03:34:34;;;;;;;4.20;3.60;;;8.00;99.90;;;;;;5113640;28;20208;-61
2020/12/15 03:37:00;;;;;;;4.83;3.37;;;8.00;99.90;;;;;;5113725;28;20227;-61
2020/12/15 03:39:26;;;;;;;5.07;3.40;;;7.90;99.90;;;;;;5113479;28;20218;-61
2020/12/15 03:41:54;;;;;;;4.73;3.23;;;7.90;99.90;;;;;;5114093;28;20227;-60
2020/12/15 03:44:22;;;;;;;4.83;3.43;;;7.90;99.90;;;;;;5114662;28;20203;-60
2020/12/15 03:46:48;;;;;;;4.50;3.27;;;7.70;99.90;;;;;;5114947;28;20234;-60
2020/12/15 03:49:15;;;;;;;4.60;3.30;;;7.70;99.90;;;;;;5113285;28;20207;-60
2020/12/15 03:51:41;;;;;;;6.87;3.20;;;7.70;99.90;;;;;;5113477;28;20223;-60
2020/12/15 03:54:07;;;;;;;4.07;3.00;;;7.80;99.90;;;;;;5113164;28;20200;-60
2020/12/15 03:56:33;;;;;;;4.10;3.17;;;7.80;99.90;;;;;;5113318;28;20227;-60
2020/12/15 03:59:00;;;;;;;3.77;2.87;;;7.90;99.90;;;;;;5112903;28;20675;-60
2020/12/15 04:01:26;;;;;;;4.00;2.70;;;8.20;99.90;;;;;;5113058;28;20292;-61
2020/12/15 04:03:52;;;;;;;3.50;2.90;;;8.30;99.90;;;;;;5113099;28;20215;-60
2020/12/15 04:06:19;;;;;;;4.33;3.30;;;8.40;99.90;;;;;;5113455;28;20203;-60
2020/12/15 04:08:45;;;;;;;3.27;2.97;;;8.40;99.90;;;;;;5112819;28;20570;-60
2020/12/15 04:11:12;;;;;;;3.47;3.17;;;8.40;99.90;;;;;;5112934;28;20231;-60
2020/12/15 04:13:38;;;;;;;4.00;3.00;;;8.40;99.90;;;;;;5112914;28;20473;-60
2020/12/15 04:16:04;;;;;;;3.77;2.93;;;8.40;99.90;;;;;;5113232;28;20356;-60
2020/12/15 04:18:30;;;;;;;3.43;3.00;;;8.50;99.90;;;;;;5112861;28;20210;-61
2020/12/15 04:20:56;;;;;;;4.53;3.23;;;8.70;99.90;;;;;;5112924;28;20261;-61
2020/12/15 04:23:26;;;;;;;3.17;2.87;;;8.90;99.90;;;;;;5112519;28;20211;-60
2020/12/15 04:25:53;;;;;;;5.63;3.43;;;9.00;99.90;;;;;;5113322;28;20199;-61
2020/12/15 04:28:19;;;;;;;4.00;2.77;;;9.00;99.90;;;;;;5112968;28;20196;-61
2020/12/15 04:30:46;;;;;;;4.33;3.27;;;9.00;99.90;;;;;;5112959;28;20211;-61
2020/12/15 04:33:12;;;;;;;3.93;3.17;;;9.10;99.90;;;;;;5112640;28;20204;-61
2020/12/15 04:35:38;;;;;;;4.90;3.53;;;9.00;99.90;;;;;;5111753;28;20204;-61
2020/12/15 04:38:05;;;;;;;6.47;3.20;;;9.00;99.90;;;;;;5112673;28;20231;-61
2020/12/15 04:40:33;;;;;;;4.50;3.10;;;9.10;99.90;;;;;;5112630;28;20294;-60
2020/12/15 04:43:01;;;;;;;6.07;3.47;;;9.10;99.90;;;;;;5112674;28;20224;-61
2020/12/15 04:45:27;;;;;;;4.63;3.33;;;9.20;99.90;;;;;;5112350;28;20199;-61
2020/12/15 04:48:01;;;;;;;5.73;3.37;;;9.30;99.90;;;;;;5112341;28;20210;-61
2020/12/15 04:50:32;;;;;;;4.77;3.33;;;9.30;99.90;;;;;;5112289;28;20639;-61
2020/12/15 04:53:02;;;;;;;4.77;3.03;;;9.40;99.90;;;;;;5112102;28;20278;-62
2020/12/15 04:55:29;;;;;;;5.87;3.40;;;9.50;99.90;;;;;;5112316;28;20195;-60
2020/12/15 04:58:00;;;;;;;5.17;3.80;;;9.40;99.90;;;;;;5111863;28;20222;-61
2020/12/15 05:00:26;;;;;;;5.03;3.60;;;9.40;99.90;;;;;;5112245;28;20211;-60
2020/12/15 05:02:55;;;;;;;6.07;3.70;;;9.10;99.90;;;;;;5111902;28;20236;-60
2020/12/15 05:05:22;;;;;;;5.37;3.57;;;8.80;99.90;;;;;;5111908;28;20295;-60
2020/12/15 05:07:48;;;;;;;5.00;3.57;;;8.70;99.90;;;;;;5111864;28;20200;-60
2020/12/15 05:10:17;;;;;;;5.97;3.60;;;8.60;99.90;;;;;;5112103;28;20215;-60
2020/12/15 05:12:44;;;;;;;4.23;3.57;;;8.60;99.90;;;;;;5111825;28;20227;-60
2020/12/15 05:15:12;;;;;;;4.57;3.70;;;8.70;99.90;;;;;;5111464;28;20208;-60
2020/12/15 05:17:39;;;;;;;8.17;3.77;;;8.80;99.90;;;;;;5111571;28;20246;-60
2020/12/15 05:20:06;;;;;;;9.17;4.47;;;8.90;99.90;;;;;;5111602;28;20211;-61
2020/12/15 05:22:42;;;;;;;4.67;3.63;;;9.00;99.90;;;;;;5111798;28;20226;-62
2020/12/15 05:25:09;;;;;;;5.07;3.70;;;9.00;99.90;;;;;;5111579;28;20210;-61
2020/12/15 05:27:42;;;;;;;4.73;3.33;;;9.00;99.90;;;;;;5111918;28;20199;-61
2020/12/15 05:30:09;;;;;;;6.50;3.70;;;9.00;99.90;;;;;;5111507;28;20199;-61
2020/12/15 05:32:46;;;;;;;5.73;3.57;;;9.00;99.90;;;;;;5111342;28;20223;-61
2020/12/15 05:35:12;;;;;;;4.23;3.47;;;9.00;99.90;;;;;;5111406;28;20203;-61
2020/12/15 05:37:43;;;;;;;5.67;3.90;;;9.00;99.90;;;;;;5111214;28;20227;-61
2020/12/15 05:40:09;;;;;;;4.33;3.40;;;9.00;99.90;;;;;;5111379;28;20208;-60
2020/12/15 05:42:37;;;;;;;6.23;4.67;;;9.00;99.90;;;;;;5111316;28;20229;-60
2020/12/15 05:45:04;;;;;;;6.73;4.67;;;9.10;99.90;;;;;;5110781;28;20200;-61
2020/12/15 05:47:32;;;;;;;5.40;3.73;;;9.10;99.90;;;;;;5111366;28;20200;-62
2020/12/15 05:50:00;;;;;;;5.13;3.30;;;9.20;99.90;;;;;;5111398;28;20249;-61
2020/12/15 05:52:27;;;;;;;3.33;2.93;;;9.20;99.90;;;;;;5111213;28;20219;-60
2020/12/15 05:55:05;;;;;;;3.90;3.10;;;9.10;99.90;;;;;;5111195;28;20203;-61
2020/12/15 05:57:32;;;;;;;5.07;4.03;;;9.10;99.90;;;;;;5111464;28;20576;-61
2020/12/15 06:00:07;;;;;;;6.07;3.60;;;9.20;99.90;;;;;;5110878;28;20674;-60
2020/12/15 06:02:34;;;;;;;10.83;5.73;;;9.20;99.90;;;;;;5110913;28;20321;-62
2020/12/15 06:05:01;;;;;;;8.97;4.70;;;9.10;99.90;;;;;;5110730;28;20702;-60
2020/12/15 06:07:28;;;;;;;6.40;3.90;;;9.00;99.90;;;;;;5111049;28;20251;-60
2020/12/15 06:09:57;;;;;;;5.83;3.93;;;8.90;99.90;;;;;;5110623;28;20271;-60
2020/12/15 06:12:23;;;;;;;5.57;3.60;;;8.80;99.90;;;;;;5111185;28;20231;-60
2020/12/15 06:14:50;;;;;;;3.80;3.20;;;8.70;99.90;;;;;;5110880;28;20203;-62
2020/12/15 06:17:17;;;;;;;4.40;2.93;;;8.50;99.90;;;;;;5111228;28;20306;-61
2020/12/15 06:19:44;;;;;;;3.97;3.07;;;8.20;99.90;;;;;;5110834;28;20199;-61
2020/12/15 06:22:11;;;;;;;5.13;3.90;;;8.10;99.90;;;;;;5110848;28;20571;-62
2020/12/15 06:24:38;;;;;;;6.53;3.53;;;8.00;99.90;;;;;;5110540;28;20211;-61
2020/12/15 06:27:06;;;;;;;4.17;3.20;;;8.10;99.90;;;;;;5111228;28;20223;-61
2020/12/15 06:29:34;;;;;;;5.40;3.70;;;8.00;99.90;;;;;;5110971;28;20200;-60
2020/12/15 06:32:02;;;;;;;5.37;4.10;;;8.10;99.90;;;;;;5110835;28;20231;-61
2020/12/15 06:34:31;;;;;;;6.13;3.07;;;8.30;99.90;;;;;;5110412;28;20214;-61
2020/12/15 06:36:58;;;;;;;6.57;3.90;;;8.40;99.90;;;;;;5110554;28;20220;-62
2020/12/15 06:39:27;;;;;;;4.77;3.77;;;8.50;99.90;;;;;;5110581;28;20216;-60
2020/12/15 06:41:57;;;;;;;4.73;3.33;;;8.60;99.90;;;;;;5110545;28;20572;-60
2020/12/15 06:44:32;;;;;;;4.97;3.50;;;8.60;99.90;;;;;;5110425;28;20245;-61
2020/12/15 06:46:59;;;;;;;5.57;3.20;;;8.70;99.90;;;;;;5110754;28;20195;-61
2020/12/15 06:49:32;;;;;;;3.97;3.40;;;8.70;99.90;;;;;;5110478;28;20207;-61
2020/12/15 06:52:00;;;;;;;4.30;3.60;;;8.80;99.90;;;;;;5110921;28;20235;-61
2020/12/15 06:54:28;;;;;;;4.07;3.03;;;8.80;99.90;;;;;;5110627;28;20204;-61
2020/12/15 06:57:02;;;;;;;4.47;3.00;;;8.70;99.90;;;;;;5111046;28;20248;-61
2020/12/15 06:59:30;;;;;;;3.93;3.10;;;8.60;99.90;;;;;;5114384;28;20671;-61
2020/12/15 07:02:06;;;;;;;5.87;3.67;;;8.60;99.90;;;;;;5114568;28;20227;-63
2020/12/15 07:04:33;;;;;;;5.73;3.30;;;8.70;99.90;;;;;;5114511;28;20207;-60
2020/12/15 07:07:00;;;;;;;3.60;3.10;;;8.70;99.90;;;;;;5114810;28;20252;-61
2020/12/15 07:09:29;;;;;;;5.73;3.20;;;8.80;99.90;;;;;;5114100;28;20552;-60
2020/12/15 07:11:55;;;;;;;4.03;3.20;;;8.90;99.90;;;;;;5114338;28;20729;-62
2020/12/15 07:14:22;;;;;;;4.47;3.23;;;8.90;99.90;;;;;;5114087;28;20265;-61
2020/12/15 07:16:50;;;;;;;4.17;2.90;;;8.90;99.90;;;;;;5114783;28;20241;-63
2020/12/15 07:19:18;;;;;;;5.53;3.00;;;8.90;99.90;;;;;;5115432;28;20211;-61
2020/12/15 07:21:44;;;;;;;6.33;3.77;;;8.80;99.90;;;;;;5115305;28;20308;-61
2020/12/15 07:24:13;;;;;;;5.57;3.60;;;8.50;99.90;;;;;;5114527;28;20237;-61
2020/12/15 07:26:42;;;;;;;3.93;3.20;;;8.50;99.90;;;;;;5114369;28;20214;-60
2020/12/15 07:29:08;;;;;;;6.00;3.37;;;8.40;99.90;;;;;;5114135;28;20203;-62
2020/12/15 07:31:34;;;;;;;6.20;4.13;;;8.30;99.90;;;;;;5114737;28;20247;-60
2020/12/15 07:34:08;;;;;;;4.33;3.60;;;8.30;99.90;;;;;;5114021;28;20200;-60
2020/12/15 07:36:37;;;;;;;4.33;3.20;;;8.20;99.90;;;;;;5114216;28;20580;-61
2020/12/15 07:39:05;;;;;;;5.90;3.80;;;8.40;99.90;;;;;;5113762;28;20238;-61
2020/12/15 07:41:36;;;;;;;5.63;3.20;;;8.50;99.90;;;;;;5113764;28;20251;-61
2020/12/15 07:44:05;;;;;;;5.33;3.77;;;8.80;99.90;;;;;;5113438;28;20623;-61
2020/12/15 07:46:31;;;;;;;4.60;3.67;;;8.80;99.90;;;;;;5113555;28;20290;-60
2020/12/15 07:48:58;;;;;;;5.33;4.00;;;8.80;99.90;;;;;;5113104;28;20207;-60
2020/12/15 07:51:24;;;;;;;5.07;3.80;;;8.90;99.90;;;;;;5113375;28;20318;-62
2020/12/15 07:53:52;;;;;;;8.07;4.20;;;8.90;99.90;;;;;;5113150;28;20663;-60
2020/12/15 07:56:19;;;;;;;5.13;3.83;;;8.90;99.90;;;;;;5113595;28;20235;-60
2020/12/15 07:58:50;;;;;;;5.80;4.17;;;9.00;99.90;;;;;;5113126;28;20228;-62
2020/12/15 08:01:21;;;;;;;6.50;4.00;;;9.10;99.90;;;;;;5113198;28;20281;-61
2020/12/15 08:03:48;;;;;;;5.70;3.90;;;9.20;99.90;;;;;;5113508;28;20264;-64
2020/12/15 08:06:15;;;;;;;6.93;3.93;;;9.30;99.90;;;;;;5113591;28;20207;-61
2020/12/15 08:08:45;;;;;;;7.77;4.97;;;9.30;99.90;;;;;;5112865;28;20196;-61
2020/12/15 08:11:15;;;;;;;5.60;3.73;;;9.40;99.90;;;;;;5112814;28;20711;-62
2020/12/15 08:13:41;;;;;;;14.00;7.33;;;9.40;99.90;;;;;;5113229;28;20208;-62
2020/12/15 08:16:08;;;;;;;17.30;7.53;;;9.50;99.90;;;;;;5112851;28;20574;-61
2020/12/15 08:18:36;;;;;;;13.23;8.30;;;9.50;99.90;;;;;;5112372;28;20223;-60
2020/12/15 08:21:04;;;;;;;14.77;7.77;;;9.60;99.90;;;;;;5112798;28;20238;-60
2020/12/15 08:23:31;;;;;;;79.97;42.88;;;9.60;99.90;;;;;;5106386;28;20434;-64
2020/12/15 08:25:58;;;;;;;13.27;8.27;;;9.60;99.90;;;;;;5115681;28;20214;-65
2020/12/15 08:28:24;;;;;;;51.47;33.83;;;9.80;99.90;;;;;;5115800;28;20199;-66
2020/12/15 08:30:52;;;;;;;13.03;9.07;;;9.90;99.90;;;;;;5114073;28;20211;-64
2020/12/15 08:33:22;;;;;;;9.70;5.63;;;10.00;99.90;;;;;;5112067;28;20617;-64
2020/12/15 08:35:49;;;;;;;9.27;5.00;;;10.10;99.90;;;;;;5112250;28;20571;-63
2020/12/15 08:38:16;;;;;;;7.23;5.23;;;10.20;99.90;;;;;;5112946;28;20274;-66
2020/12/15 08:40:44;;;;;;;8.57;4.10;;;10.30;99.90;;;;;;5112860;28;20204;-66
2020/12/15 08:43:10;;;;;;;6.10;4.40;;;10.40;99.90;;;;;;5114207;28;20312;-66
2020/12/15 08:45:37;;;;;;;4.80;3.43;;;10.30;99.90;;;;;;5111726;28;20674;-66
2020/12/15 08:48:03;;;;;;;5.03;3.67;;;10.20;99.90;;;;;;5111906;28;20200;-65
2020/12/15 08:50:31;;;;;;;5.23;3.57;;;10.00;99.90;;;;;;5112992;28;20199;-67
2020/12/15 08:53:06;;;;;;;6.63;3.93;;;9.80;99.90;;;;;;5115017;28;20223;-67
2020/12/15 08:55:33;;;;;;;7.97;4.30;;;9.70;99.90;;;;;;5114145;28;20627;-62
2020/12/15 08:58:00;;;;;;;6.80;4.50;;;9.60;99.90;;;;;;5113035;28;20219;-63
2020/12/15 09:00:26;;;;;;;8.10;4.73;;;9.40;99.90;;;;;;5112762;28;20211;-64
2020/12/15 09:03:03;;;;;;;8.53;4.53;;;9.30;99.90;;;;;;5133065;22;20228;-62
2020/12/15 09:05:29;;;;;;;8.23;4.30;;;9.50;99.90;;;;;;5112569;28;20221;-61
2020/12/15 09:08:01;;;;;;;7.50;4.67;;;9.50;99.90;;;;;;5112591;28;20209;-62
2020/12/15 09:10:30;;;;;;;7.40;4.90;;;9.70;99.90;;;;;;5112771;28;20675;-62
2020/12/15 09:12:56;;;;;;;6.60;4.33;;;9.60;99.90;;;;;;5112390;28;20227;-62
2020/12/15 09:15:23;;;;;;;6.27;3.90;;;9.60;99.90;;;;;;5112163;28;20200;-63
2020/12/15 09:17:49;;;;;;;7.87;4.67;;;9.40;99.90;;;;;;5113159;28;20227;-62
2020/12/15 09:20:24;;;;;;;5.90;4.30;;;9.40;99.90;;;;;;5112841;28;20213;-61
2020/12/15 09:22:50;;;;;;;6.97;4.47;;;9.20;99.90;;;;;;5112711;28;20258;-62
2020/12/15 09:25:17;;;;;;;9.10;4.57;;;9.10;99.90;;;;;;5112765;28;20685;-63
2020/12/15 09:27:48;;;;;;;8.20;4.70;;;9.10;99.90;;;;;;5112144;28;20195;-63
2020/12/15 09:30:15;;;;;;;6.97;4.47;;;9.20;99.90;;;;;;5112682;28;20210;-61
2020/12/15 09:32:42;;;;;;;9.47;4.87;;;9.10;99.90;;;;;;5113301;28;20227;-63
2020/12/15 09:35:10;;;;;;;6.10;4.60;;;9.10;99.90;;;;;;5112926;28;20200;-63
2020/12/15 09:37:36;;;;;;;8.77;4.97;;;9.00;99.90;;;;;;5112565;28;20215;-62
2020/12/15 09:40:04;;;;;;;7.87;4.70;;;8.90;99.90;;;;;;5112651;28;20208;-63
2020/12/15 09:42:32;;;;;;;7.43;4.40;;;8.90;99.90;;;;;;5111996;28;20671;-63
2020/12/15 09:44:59;;;;;;;7.47;4.63;;;9.00;99.90;;;;;;5112209;28;20651;-63
2020/12/15 09:47:26;;;;;;;7.07;4.20;;;9.00;99.90;;;;;;5112475;28;20211;-65
2020/12/15 09:49:52;;;;;;;8.10;4.13;;;9.10;99.90;;;;;;5111935;28;20275;-64
2020/12/15 09:52:18;;;;;;;6.53;4.57;;;9.20;99.90;;;;;;5112502;28;20710;-64
2020/12/15 09:54:44;;;;;;;6.50;4.50;;;9.20;99.90;;;;;;5112217;28;20218;-63
2020/12/15 09:57:10;;;;;;;7.67;4.40;;;9.30;99.90;;;;;;5112376;28;20219;-60
2020/12/15 09:59:37;;;;;;;6.80;4.33;;;9.50;99.90;;;;;;5112025;28;20265;-61
2020/12/15 10:02:04;;;;;;;7.00;4.70;;;9.40;99.90;;;;;;5111812;28;20243;-62
2020/12/15 10:04:30;;;;;;;7.10;4.80;;;9.30;99.90;;;;;;5111600;28;20215;-63
2020/12/15 10:06:57;;;;;;;9.57;4.70;;;9.60;99.90;;;;;;5112273;28;20215;-61
2020/12/15 10:09:23;;;;;;;7.10;4.30;;;9.60;99.90;;;;;;5111528;28;20234;-62
2020/12/15 10:11:50;;;;;;;5.97;4.07;;;9.50;99.90;;;;;;5111939;28;20718;-61
2020/12/15 10:14:16;;;;;;;9.33;4.87;;;9.50;99.90;;;;;;5111710;28;20258;-61
2020/12/15 10:16:42;;;;;;;6.37;4.47;;;9.60;99.90;;;;;;5111667;28;20739;-62
2020/12/15 10:19:11;;;;;;;9.07;4.40;;;9.50;99.90;;;;;;5111541;28;20207;-60
2020/12/15 10:21:37;;;;;;;5.07;3.80;;;9.40;99.90;;;;;;5111922;28;20219;-60
2020/12/15 10:24:04;;;;;;;6.23;4.60;;;9.30;99.90;;;;;;5111431;28;20252;-60
2020/12/15 10:26:30;;;;;;;7.03;4.00;;;9.10;99.90;;;;;;5112023;28;20211;-61
2020/12/15 10:28:57;;;;;;;5.47;4.23;;;9.10;99.90;;;;;;5112061;28;20199;-62
2020/12/15 10:31:24;;;;;;;5.67;4.63;;;9.00;99.90;;;;;;5111691;28;20252;-61
2020/12/15 10:33:50;;;;;;;7.27;4.17;;;9.10;99.90;;;;;;5115011;28;20210;-62
2020/12/15 10:36:18;;;;;;;5.83;3.93;;;9.20;99.90;;;;;;5115432;28;20204;-61
2020/12/15 10:38:45;;;;;;;7.00;4.67;;;9.30;99.90;;;;;;5115121;28;20224;-61
2020/12/15 10:41:12;;;;;;;7.07;4.67;;;9.30;99.90;;;;;;5115439;28;20577;-61
2020/12/15 10:43:38;;;;;;;5.83;4.40;;;9.30;99.90;;;;;;5115183;28;20682;-61
2020/12/15 10:46:05;;;;;;;6.80;4.63;;;9.50;99.90;;;;;;5115747;28;20203;-63
2020/12/15 10:48:31;;;;;;;7.80;4.40;;;9.50;99.90;;;;;;5115378;28;20690;-61
2020/12/15 10:50:58;;;;;;;5.37;4.03;;;9.50;99.90;;;;;;5115607;28;20260;-60
2020/12/15 10:53:25;;;;;;;5.87;4.37;;;9.50;99.90;;;;;;5115293;28;20207;-61
2020/12/15 10:55:51;;;;;;;5.30;4.27;;;9.50;99.90;;;;;;5116293;28;20207;-60
2020/12/15 10:58:18;;;;;;;5.47;3.83;;;9.50;99.90;;;;;;5115717;28;20227;-60
2020/12/15 11:00:44;;;;;;;7.30;4.83;;;9.60;99.90;;;;;;5116815;28;20631;-60
2020/12/15 11:03:11;;;;;;;9.73;5.13;;;9.70;99.90;;;;;;5116388;28;20231;-60
2020/12/15 11:05:37;;;;;;;10.53;4.83;;;9.80;99.90;;;;;;5115524;28;20204;-62
2020/12/15 11:08:03;;;;;;;8.70;4.77;;;10.10;99.90;;;;;;5115391;28;20651;-60
2020/12/15 11:10:30;;;;;;;7.90;4.63;;;10.30;99.90;;;;;;5115828;28;20200;-60
2020/12/15 11:13:00;;;;;;;7.50;5.30;;;10.60;99.90;;;;;;5115994;28;20592;-60
2020/12/15 11:15:26;;;;;;;6.97;5.13;;;10.90;99.90;;;;;;5115220;28;20598;-60
2020/12/15 11:17:52;;;;;;;8.70;6.00;;;11.20;99.90;;;;;;5115367;28;20223;-60
2020/12/15 11:20:19;;;;;;;11.10;6.83;;;11.50;99.90;;;;;;5114995;28;20259;-60
2020/12/15 11:22:45;;;;;;;7.60;4.90;;;11.80;99.90;;;;;;5115542;28;20257;-60
2020/12/15 11:25:11;;;;;;;6.10;4.50;;;11.90;99.90;;;;;;5115792;28;20253;-61
2020/12/15 11:27:38;;;;;;;7.43;4.57;;;11.90;99.90;;;;;;5114720;28;20566;-61
2020/12/15 11:30:04;;;;;;;5.47;4.50;;;12.00;99.90;;;;;;5114986;28;20215;-61
2020/12/15 11:32:31;;;;;;;8.10;5.10;;;12.10;99.90;;;;;;5115196;28;20227;-63
2020/12/15 11:34:57;;;;;;;5.63;4.43;;;12.10;99.90;;;;;;5115850;28;20229;-64
2020/12/15 11:37:23;;;;;;;6.00;4.50;;;12.00;99.90;;;;;;5115977;28;20233;-64
2020/12/15 11:39:49;;;;;;;7.17;4.43;;;12.10;99.90;;;;;;5115484;28;20214;-64
2020/12/15 11:42:16;;;;;;;6.37;4.17;;;12.10;99.90;;;;;;5115506;28;20219;-64
2020/12/15 11:44:43;;;;;;;6.93;4.80;;;11.90;99.90;;;;;;5114289;28;20754;-64
2020/12/15 11:47:10;;;;;;;5.93;4.30;;;11.80;99.90;;;;;;5115350;28;20227;-64
2020/12/15 11:49:36;;;;;;;6.37;4.27;;;11.80;99.90;;;;;;5115141;28;20206;-64
2020/12/15 11:52:03;;;;;;;7.03;4.50;;;11.80;99.90;;;;;;5115459;28;20230;-65
2020/12/15 11:54:29;;;;;;;6.20;4.67;;;11.80;99.90;;;;;;5115031;28;20206;-65
2020/12/15 11:56:57;;;;;;;9.87;7.30;;;11.70;99.90;;;;;;5115562;28;20727;-64
2020/12/15 11:59:23;;;;;;;7.67;5.37;;;11.50;99.90;;;;;;5115060;28;20249;-64
2020/12/15 12:01:50;;;;;;;7.10;5.00;;;11.20;99.90;;;;;;5115049;28;20722;-64
2020/12/15 12:04:16;;;;;;;8.10;5.50;;;11.00;99.90;;;;;;5115868;28;20211;-64
2020/12/15 12:06:42;;;;;;;9.47;5.63;;;10.80;99.90;;;;;;5116219;28;20235;-64
2020/12/15 12:09:09;;;;;;;10.17;6.50;;;10.80;99.90;;;;;;5116497;28;20199;-65
2020/12/15 12:11:35;;;;;;;8.73;5.80;;;10.80;99.90;;;;;;5116419;28;20227;-65
2020/12/15 12:14:01;;;;;;;6.20;4.80;;;11.00;99.90;;;;;;5115313;28;20621;-64
2020/12/15 12:16:27;;;;;;;9.00;5.33;;;11.10;99.90;;;;;;5116480;28;20285;-65
2020/12/15 12:18:54;;;;;;;8.93;5.93;;;11.20;99.90;;;;;;5115260;28;20605;-65
2020/12/15 12:21:21;;;;;;;8.77;6.00;;;11.00;99.90;;;;;;5116086;28;20698;-64
2020/12/15 12:23:47;;;;;;;6.50;5.23;;;11.00;99.90;;;;;;5115676;28;20195;-64
2020/12/15 12:26:15;;;;;;;8.57;5.93;;;11.00;99.90;;;;;;5115937;28;20211;-64
2020/12/15 12:28:42;;;;;;;9.50;6.30;;;10.90;99.90;;;;;;5114964;28;20280;-64
2020/12/15 12:31:11;;;;;;;8.00;5.63;;;10.80;99.90;;;;;;5116182;28;20204;-64
2020/12/15 12:33:37;;;;;;;9.20;6.10;;;10.90;99.90;;;;;;5115391;28;20695;-64
2020/12/15 12:36:04;;;;;;;9.37;6.10;;;11.00;99.90;;;;;;5115827;28;20204;-64
2020/12/15 12:38:31;;;;;;;7.20;5.10;;;10.90;99.90;;;;;;5115701;28;20710;-64
2020/12/15 12:40:57;;;;;;;7.53;5.07;;;11.00;99.90;;;;;;5116587;28;20203;-64
2020/12/15 12:43:23;;;;;;;7.67;4.70;;;11.20;99.90;;;;;;5115550;28;20222;-64
2020/12/15 12:45:49;;;;;;;7.30;4.57;;;11.20;99.90;;;;;;5114779;28;20493;-64
2020/12/15 12:48:16;;;;;;;7.90;5.07;;;11.20;99.90;;;;;;5115780;28;20656;-64
2020/12/15 12:50:42;;;;;;;7.90;5.17;;;11.30;99.90;;;;;;5115929;28;20195;-64
2020/12/15 12:53:09;;;;;;;5.70;4.47;;;11.40;99.90;;;;;;5116883;28;20227;-64
2020/12/15 12:55:35;;;;;;;8.03;4.73;;;11.50;99.90;;;;;;5113434;28;20211;-65